M I D A S
Marine Information and Data Acquisition System
Tripno 1859 of the Zeeleeuw from 2010-04-12 07:55:30 to 2010-04-12 13:48:43
Back to CruiseResearch ActivitiesStationsMapUnderway DataData graphs

EquipmentUnitsComment
TimeDGPSUTC
LatitudeDGPSDM.mWGS84
LongitudeDGPSDM.mWGS84
HeadingGyrodeg 
SOGDGPSknotsSpeed over ground
COGDGPSdegCourse over ground
DepthEcho soundermeters200 kHz
Missing or incorrect values are displayed as -999
Navigation data collected by the RV Zeeleeuw from 2010-04-12 07:55:59 to 2010-04-12 13:50:35
Time Latitude Longitude Heading SOG COG Depth
2010-04-12 07:57:05 51°13.675 2°55.894 106.3 3.3 286 -999
2010-04-12 07:58:05 51°13.687 2°55.798 102.4 3.9 280 -999
2010-04-12 07:59:05 51°13.691 2°55.772 79.2 1.6 81 4.7
2010-04-12 08:00:05 51°13.684 2°55.76 65 0.3 230 4.7
2010-04-12 08:01:05 51°13.701 2°55.775 7.1 0.8 188 -999
2010-04-12 08:02:05 51°13.713 2°55.75 321.5 3.6 314 -999
2010-04-12 08:03:05 51°13.788 2°55.664 331 6.7 330 -999
2010-04-12 08:04:05 51°13.899 2°55.574 336.9 8.3 336 -999
2010-04-12 08:05:05 51°14.037 2°55.475 339 9.8 337 -999
2010-04-12 08:06:05 51°14.194 2°55.365 338.3 11 336 -999
2010-04-12 08:07:05 51°14.36 2°55.197 325.7 12.8 326 10
2010-04-12 08:08:04 51°14.532 2°54.993 324.6 13.4 316 11
2010-04-12 08:09:03 51°14.697 2°54.768 326.2 13.1 322 11.6
2010-04-12 08:10:02 51°14.872 2°54.574 331.2 13.4 323 11.5
2010-04-12 08:11:02 51°15.039 2°54.351 328.9 12.8 322 9.6
2010-04-12 08:12:01 51°15.207 2°54.145 327.5 13 321 10.1
2010-04-12 08:13:02 51°15.378 2°53.926 327.8 13 322 10.7
2010-04-12 08:14:02 51°15.546 2°53.709 329.6 13 322 10.5
2010-04-12 08:15:02 51°15.723 2°53.521 335.1 12.8 329 11.5
2010-04-12 08:16:02 51°15.906 2°53.355 337.5 12.7 331 11.8
2010-04-12 08:17:02 51°16.092 2°53.198 338.7 12.6 333 11.7
2010-04-12 08:18:02 51°16.282 2°53.056 342.8 12.4 339 11.8
2010-04-12 08:19:02 51°16.482 2°52.968 349.2 12.4 345 11.8
2010-04-12 08:20:02 51°16.683 2°52.88 347.5 12.4 343 10.9
2010-04-12 08:21:02 51°16.88 2°52.785 346.4 12.4 344 9.1
2010-04-12 08:22:02 51°17.076 2°52.687 346.6 12.4 342 9.7
2010-04-12 08:23:02 51°17.272 2°52.59 346.3 12.3 343 9.7
2010-04-12 08:24:02 51°17.473 2°52.534 358.6 12.3 356 10.3
2010-04-12 08:25:02 51°17.678 2°52.521 0.8 12.4 358 10.6
2010-04-12 08:26:02 51°17.881 2°52.545 9.8 12.3 7 10.2
2010-04-12 08:27:01 51°18.071 2°52.624 28.5 11.9 33 10.6
2010-04-12 08:28:01 51°18.203 2°52.859 59.4 12.3 62 10.8
2010-04-12 08:29:02 51°18.282 2°53.168 64.4 12.4 64 10.7
2010-04-12 08:30:02 51°18.364 2°53.469 63.2 12.2 66 10.8
2010-04-12 08:31:02 51°18.447 2°53.77 63.7 12.2 67 10.6
2010-04-12 08:32:01 51°18.529 2°54.067 63.8 12.4 68 10.8
2010-04-12 08:33:01 51°18.611 2°54.367 64 12.3 66 10.9
2010-04-12 08:34:02 51°18.693 2°54.675 64.3 12.3 66 10.9
2010-04-12 08:35:02 51°18.777 2°54.977 64 12.4 69 11.3
2010-04-12 08:36:02 51°18.858 2°55.279 64.4 12.5 67 11.6
2010-04-12 08:37:02 51°18.942 2°55.579 64 12.5 65 10.7
2010-04-12 08:38:02 51°19.026 2°55.882 64.6 12.5 67 11
2010-04-12 08:39:02 51°19.109 2°56.185 64 12.5 67 11.1
2010-04-12 08:40:02 51°19.197 2°56.483 60.9 12.4 61 10.8
2010-04-12 08:41:02 51°19.298 2°56.77 58.9 12.4 61 11
2010-04-12 08:42:02 51°19.4 2°57.055 59.2 12.4 60 10.3
2010-04-12 08:43:02 51°19.503 2°57.343 58.9 12.5 59 10.5
2010-04-12 08:44:01 51°19.605 2°57.627 58.6 12.6 62 10.9
2010-04-12 08:45:02 51°19.71 2°57.914 58.9 11.1 61 10.9
2010-04-12 08:46:02 51°19.771 2°58.093 57.2 5.1 62 11.3
2010-04-12 08:47:02 51°19.78 2°58.16 81.9 1.4 126 10.7
2010-04-12 08:48:02 51°19.759 2°58.171 107.6 1.4 163 11
2010-04-12 08:49:02 51°19.735 2°58.172 113.2 1.5 190 10.7
2010-04-12 08:50:01 51°19.711 2°58.166 119.3 1.5 192 10.3
2010-04-12 08:51:02 51°19.686 2°58.156 122.5 1.5 194 10.6
2010-04-12 08:52:01 51°19.662 2°58.147 122 1.5 195 10.3
2010-04-12 08:53:01 51°19.633 2°58.157 109.1 2.8 127 10.6
2010-04-12 08:54:01 51°19.634 2°58.249 52.7 4.4 61 10.1
2010-04-12 08:55:01 51°19.696 2°58.4 56.3 8.5 58 10.8
2010-04-12 08:56:01 51°19.778 2°58.636 60.5 12.2 56 10
2010-04-12 08:57:01 51°19.878 2°58.934 63.5 13 64 10
2010-04-12 08:58:01 51°19.966 2°59.248 67.7 13.1 68 10.2
2010-04-12 08:59:02 51°20.048 2°59.574 67.7 13.1 66 10.1
2010-04-12 09:00:02 51°20.126 2°59.895 67.8 12.8 67 9.7
2010-04-12 09:01:01 51°20.204 3°0.209 67.9 13 67 9.7
2010-04-12 09:02:01 51°20.284 3°0.531 67.7 13 69 9.7
2010-04-12 09:03:01 51°20.365 3°0.853 66.9 13.1 68 10.3
2010-04-12 09:04:01 51°20.448 3°1.173 66.8 13.1 68 9.9
2010-04-12 09:05:02 51°20.531 3°1.501 67.2 13.1 67 9.8
2010-04-12 09:06:01 51°20.613 3°1.818 67.1 13.2 66 10.4
2010-04-12 09:07:02 51°20.698 3°2.148 67.1 13.2 68 10
2010-04-12 09:08:01 51°20.781 3°2.467 66.9 13.4 69 10.2
2010-04-12 09:09:01 51°20.865 3°2.792 67 13.2 68 10.3
2010-04-12 09:10:01 51°20.951 3°3.119 67 13.4 67 10.2
2010-04-12 09:11:01 51°21.035 3°3.447 66.8 13.3 69 10.6
2010-04-12 09:12:01 51°21.121 3°3.773 66.8 13.2 67 10.8
2010-04-12 09:13:01 51°21.208 3°4.098 67 13.3 67 11
2010-04-12 09:14:02 51°21.294 3°4.428 67.6 13.3 67 11.2
2010-04-12 09:15:01 51°21.376 3°4.751 69.3 13.4 69 11.1
2010-04-12 09:16:02 51°21.449 3°5.093 71.7 13.4 71 10.9
2010-04-12 09:17:01 51°21.518 3°5.427 71.5 13.6 74 11.4
2010-04-12 09:18:01 51°21.589 3°5.767 70.9 13.5 72 11.5
2010-04-12 09:19:02 51°21.661 3°6.114 70.9 13.5 70 11.3
2010-04-12 09:20:01 51°21.731 3°6.448 70.5 13.4 72 11.5
2010-04-12 09:21:01 51°21.8 3°6.788 71.2 13.5 71 11.7
2010-04-12 09:22:01 51°21.869 3°7.13 71.5 13.6 71 12
2010-04-12 09:23:02 51°21.939 3°7.478 71.4 13.4 73 12.6
2010-04-12 09:24:01 51°22.022 3°7.797 60.6 13.2 62 12.5
2010-04-12 09:25:01 51°22.137 3°8.097 58.2 13.3 58 12.6
2010-04-12 09:26:01 51°22.252 3°8.391 58 11.3 58 13.6
2010-04-12 09:27:02 51°22.329 3°8.606 59.3 8.4 61 13.3
2010-04-12 09:28:01 51°22.392 3°8.796 59.1 8.3 62 13.5
2010-04-12 09:29:01 51°22.458 3°9.026 64.8 10.3 67 13.4
2010-04-12 09:30:02 51°22.508 3°9.338 79.2 12.8 79 13.8
2010-04-12 09:31:01 51°22.539 3°9.678 80.9 13.6 82 14.3
2010-04-12 09:32:01 51°22.574 3°10.038 80 13.9 80 17.7
2010-04-12 09:33:01 51°22.623 3°10.394 74.8 13.7 73 16.2
2010-04-12 09:34:02 51°22.687 3°10.748 73.4 12.8 73 15.1
2010-04-12 09:35:01 51°22.768 3°10.907 35.5 5.5 41 14.6
2010-04-12 09:36:01 51°22.824 3°10.978 20.7 3.2 25 14.9
2010-04-12 09:37:01 51°22.843 3°10.984 334.2 0.3 243 14.1
2010-04-12 09:38:01 51°22.834 3°10.978 300.9 0.8 191 14.4
2010-04-12 09:39:01 51°22.82 3°10.978 290.4 0.9 170 14.3
2010-04-12 09:40:01 51°22.805 3°10.985 285.8 1 160 14.5
2010-04-12 09:41:02 51°22.788 3°10.994 286.1 1.1 155 14.4
2010-04-12 09:42:02 51°22.77 3°11.005 286 1.1 152 14.3
2010-04-12 09:43:01 51°22.759 3°10.999 297.9 1.8 288 14.8
2010-04-12 09:44:01 51°22.805 3°10.975 5.3 4.6 12 14.9
2010-04-12 09:45:01 51°22.899 3°11.002 5.6 5.1 9 14.4
2010-04-12 09:46:01 51°22.961 3°11.021 8.1 2.9 17 14
2010-04-12 09:47:01 51°22.995 3°11.041 6 1.9 21 14.2
2010-04-12 09:48:01 51°23.021 3°11.058 4.6 1.5 24 13.6
2010-04-12 09:49:01 51°23.049 3°11.074 5.1 2.3 21 14
2010-04-12 09:50:01 51°23.097 3°11.099 7.4 3.5 16 13.7
2010-04-12 09:51:01 51°23.163 3°11.115 358.8 4.6 5 13.2
2010-04-12 09:52:01 51°23.246 3°11.123 358 5.3 3 13.3
2010-04-12 09:53:01 51°23.34 3°11.134 359.8 5.8 5 13.6
2010-04-12 09:54:02 51°23.43 3°11.147 358.3 4.7 6 14.1
2010-04-12 09:55:01 51°23.498 3°11.164 1.3 4.1 13 13.7
2010-04-12 09:56:01 51°23.56 3°11.171 343 4 353 14
2010-04-12 09:57:02 51°23.674 3°11.128 340.4 8.3 346 14.2
2010-04-12 09:58:01 51°23.814 3°11.078 341.1 9.1 348 15.2
2010-04-12 09:59:02 51°23.971 3°11.027 342.2 9.6 348 17.2
2010-04-12 10:00:01 51°24.128 3°11.015 357.2 9.8 6 19.9
2010-04-12 10:01:02 51°24.292 3°11.055 0.8 9.8 8 20.3
2010-04-12 10:02:01 51°24.444 3°11.064 345.7 9 349 18
2010-04-12 10:03:02 51°24.551 3°11.019 337.9 4.5 345 15.1
2010-04-12 10:04:01 51°24.602 3°11.001 336.9 2.3 350 14.3
2010-04-12 10:05:01 51°24.632 3°10.983 315.4 1.9 321 14
2010-04-12 10:06:02 51°24.643 3°10.94 290.2 1.8 283 13.9
2010-04-12 10:07:01 51°24.65 3°10.893 291.4 1.8 280 13.9
2010-04-12 10:08:02 51°24.658 3°10.843 294.2 2 282 13.7
2010-04-12 10:09:01 51°24.667 3°10.792 294 2 286 13.3
2010-04-12 10:10:02 51°24.677 3°10.74 291.8 2 285 13.3
2010-04-12 10:11:01 51°24.684 3°10.69 289 2 281 12.7
2010-04-12 10:12:02 51°24.69 3°10.635 289.7 2.1 279 12.6
2010-04-12 10:13:01 51°24.698 3°10.583 290.3 1.9 280 12.6
2010-04-12 10:14:01 51°24.703 3°10.531 287.7 2 278 12.2
2010-04-12 10:15:01 51°24.703 3°10.478 282.7 2 267 12
2010-04-12 10:16:01 51°24.705 3°10.425 285.3 2.1 274 12.3
2010-04-12 10:17:02 51°24.706 3°10.369 283.1 2.1 269 11.8
2010-04-12 10:18:01 51°24.706 3°10.316 283.3 1.9 272 12
2010-04-12 10:19:02 51°24.705 3°10.266 284.7 1.8 270 12
2010-04-12 10:20:01 51°24.707 3°10.216 284.3 2 273 12
2010-04-12 10:21:01 51°24.709 3°10.162 286.6 1.9 276 11.4
2010-04-12 10:22:01 51°24.711 3°10.11 284.3 2 273 12
2010-04-12 10:23:01 51°24.71 3°10.056 283.6 2.1 270 12
2010-04-12 10:24:01 51°24.71 3°10.003 285.2 2 268 11.9
2010-04-12 10:25:02 51°24.71 3°9.949 284.1 2.1 270 12
2010-04-12 10:26:02 51°24.709 3°9.896 285 2 267 11.7
2010-04-12 10:27:01 51°24.708 3°9.844 284.8 2 263 11.7
2010-04-12 10:28:01 51°24.706 3°9.792 284.4 2 269 11.8
2010-04-12 10:29:02 51°24.712 3°9.743 307.1 1.9 311 11.7
2010-04-12 10:30:02 51°24.768 3°9.753 13.5 5.9 28 10.8
2010-04-12 10:31:01 51°24.875 3°9.884 36.3 7.2 53 10.9
2010-04-12 10:32:01 51°24.866 3°10.04 124.8 5.9 129 10.8
2010-04-12 10:33:01 51°24.789 3°10.103 178.6 4.7 167 11.7
2010-04-12 10:34:01 51°24.724 3°10.105 210.9 3.1 186 12.1
2010-04-12 10:35:01 51°24.676 3°10.064 244 3.8 228 12.2
2010-04-12 10:36:01 51°24.652 3°10.011 266.6 1.5 236 12.4
2010-04-12 10:37:02 51°24.642 3°9.914 276.1 6.3 272 12.8
2010-04-12 10:38:01 51°24.679 3°9.777 310.3 3.7 317 12
2010-04-12 10:39:02 51°24.714 3°9.738 321.6 2.3 331 12.1
2010-04-12 10:40:01 51°24.753 3°9.713 331.9 3.1 343 12
2010-04-12 10:41:01 51°24.812 3°9.699 350.1 4.3 5 11.2
2010-04-12 10:42:01 51°24.878 3°9.722 356.1 3.2 15 10.6
2010-04-12 10:43:01 51°24.928 3°9.75 9 3.3 30 10.5
2010-04-12 10:44:01 51°24.968 3°9.82 38.5 3.9 59 10.2
2010-04-12 10:45:01 51°24.996 3°9.92 49.1 4.1 70 10.6
2010-04-12 10:46:01 51°25.017 3°10.024 53.8 4 75 10.6
2010-04-12 10:47:01 51°25.032 3°10.129 57.4 3.9 79 10.3
2010-04-12 10:48:01 51°25.043 3°10.226 57 3.5 79 10.6
2010-04-12 10:49:01 51°25.059 3°10.319 47.1 3.7 71 10.9
2010-04-12 10:50:01 51°25.085 3°10.409 40.8 3.6 64 10.5
2010-04-12 10:51:01 51°25.108 3°10.497 45.8 3.6 68 10.9
2010-04-12 10:52:01 51°25.13 3°10.588 47.3 3.8 68 10.9
2010-04-12 10:53:02 51°25.153 3°10.684 48.5 3.8 68 11.1
2010-04-12 10:54:01 51°25.173 3°10.781 53.8 3.9 74 10.9
2010-04-12 10:55:02 51°25.191 3°10.884 55.2 3.9 77 11.2
2010-04-12 10:56:01 51°25.203 3°10.978 56 3.7 75 11.2
2010-04-12 10:57:02 51°25.218 3°11.076 55.9 3.7 76 12
2010-04-12 10:58:01 51°25.234 3°11.168 52.7 3.7 72 11.9
2010-04-12 10:59:01 51°25.253 3°11.262 53.8 3.7 74 12.2
2010-04-12 11:00:01 51°25.268 3°11.358 55.2 3.7 77 12.1
2010-04-12 11:01:02 51°25.284 3°11.454 54.3 3.8 74 12.5
2010-04-12 11:02:02 51°25.305 3°11.542 45.6 3.4 66 12.2
2010-04-12 11:03:01 51°25.332 3°11.615 32 3.3 52 12.2
2010-04-12 11:04:02 51°25.372 3°11.69 33.3 4 50 12.3
2010-04-12 11:05:01 51°25.409 3°11.784 50.3 4.3 66 11.8
2010-04-12 11:06:02 51°25.425 3°11.902 68.7 4.4 83 11.9
2010-04-12 11:07:02 51°25.429 3°12.018 70.6 4.2 88 12.5
2010-04-12 11:08:02 51°25.432 3°12.12 66.2 3.5 85 12
2010-04-12 11:09:01 51°25.439 3°12.215 61.1 3.6 85 12.7
2010-04-12 11:10:01 51°25.446 3°12.305 59.6 3.4 80 12
2010-04-12 11:11:01 51°25.454 3°12.397 58.9 3.4 81 12.3
2010-04-12 11:12:01 51°25.464 3°12.488 58.7 3.5 82 13.1
2010-04-12 11:13:02 51°25.473 3°12.579 57.7 3.5 78 12.3
2010-04-12 11:14:02 51°25.487 3°12.671 57.6 3.7 77 12.1
2010-04-12 11:15:02 51°25.497 3°12.762 58.1 3.4 79 12.2
2010-04-12 11:16:01 51°25.509 3°12.85 58.2 3.6 76 11.9
2010-04-12 11:17:02 51°25.521 3°12.944 61.7 3.5 84 12.4
2010-04-12 11:18:01 51°25.521 3°13.042 83.1 3.9 99 12
2010-04-12 11:19:01 51°25.512 3°13.149 90.2 4.2 102 12.3
2010-04-12 11:20:01 51°25.498 3°13.259 94.4 4.2 102 11.9
2010-04-12 11:21:01 51°25.485 3°13.367 94.4 4.2 100 12.6
2010-04-12 11:22:02 51°25.465 3°13.477 104 4.3 110 12.3
2010-04-12 11:23:01 51°25.43 3°13.574 132.3 4.3 132 12.6
2010-04-12 11:24:02 51°25.371 3°13.64 161.2 4.2 153 13.1
2010-04-12 11:25:01 51°25.306 3°13.675 178.6 3.8 168 13.5
2010-04-12 11:26:01 51°25.252 3°13.675 212.3 2.8 195 14
2010-04-12 11:27:01 51°25.214 3°13.646 239.1 2.3 222 14.2
2010-04-12 11:28:01 51°25.193 3°13.605 259.1 1.9 241 14.3
2010-04-12 11:29:01 51°25.182 3°13.553 271 2.1 259 14
2010-04-12 11:30:02 51°25.185 3°13.498 289.5 2 284 14.8
2010-04-12 11:31:02 51°25.193 3°13.464 299.3 1.1 291 14.5
2010-04-12 11:32:01 51°25.206 3°13.422 302.6 3.7 302 14.5
2010-04-12 11:33:01 51°25.244 3°13.313 297.4 4.2 295 14
2010-04-12 11:34:01 51°25.265 3°13.248 302.5 1.6 294 13.3
2010-04-12 11:35:01 51°25.269 3°13.224 303.7 0.5 284 13.4
2010-04-12 11:36:01 51°25.267 3°13.219 302.7 0.3 154 13.1
2010-04-12 11:37:02 51°25.259 3°13.225 299.6 0.8 149 13.7
2010-04-12 11:38:01 51°25.247 3°13.237 296.3 0.9 143 14.2
2010-04-12 11:39:01 51°25.233 3°13.253 288.8 1.1 148 14.3
2010-04-12 11:40:02 51°25.221 3°13.256 276.6 1.8 253 14.6
2010-04-12 11:41:01 51°25.215 3°13.143 270.3 6 265 14.5
2010-04-12 11:42:01 51°25.19 3°12.974 247 7.1 243 13.8
2010-04-12 11:43:01 51°25.114 3°12.82 233.1 7.7 221 14.6
2010-04-12 11:44:02 51°25.025 3°12.672 230.9 7.6 227 14.5
2010-04-12 11:45:01 51°24.937 3°12.527 231.1 7.7 229 15.1
2010-04-12 11:46:01 51°24.846 3°12.382 231 7.8 227 15.2
2010-04-12 11:47:01 51°24.744 3°12.233 218.8 9.3 210 16.4
2010-04-12 11:48:01 51°24.586 3°12.139 204.4 10.6 199 18.2
2010-04-12 11:49:01 51°24.416 3°12.072 200.5 10.5 194 21.2
2010-04-12 11:50:01 51°24.247 3°12.004 202.6 10.5 193 21
2010-04-12 11:51:02 51°24.077 3°11.926 207 10.4 197 18.8
2010-04-12 11:52:01 51°23.922 3°11.821 217 10 209 16.4
2010-04-12 11:53:02 51°23.79 3°11.661 229.8 9.7 227 15.3
2010-04-12 11:54:01 51°23.684 3°11.474 234.4 9.5 231 15
2010-04-12 11:55:01 51°23.574 3°11.285 231.4 10.1 222 15.2
2010-04-12 11:56:01 51°23.465 3°11.093 233.9 9.8 223 15.4
2010-04-12 11:57:01 51°23.356 3°10.899 231.6 9.5 228 15.5
2010-04-12 11:58:01 51°23.244 3°10.713 228.8 9.9 225 15.4
2010-04-12 11:59:02 51°23.133 3°10.519 228.9 9.8 233 15.2
2010-04-12 12:00:02 51°23.02 3°10.331 229.8 9.9 221 15.9
2010-04-12 12:01:02 51°22.914 3°10.131 237 9.8 233 16.3
2010-04-12 12:02:02 51°22.832 3°9.903 244.8 9.8 247 20.7
2010-04-12 12:03:02 51°22.759 3°9.669 246.9 10 241 16
2010-04-12 12:04:02 51°22.686 3°9.436 245.7 10 236 15.8
2010-04-12 12:05:01 51°22.615 3°9.209 245.5 9.7 242 15.7
2010-04-12 12:06:01 51°22.542 3°8.98 243.9 9.6 243 15.7
2010-04-12 12:07:01 51°22.47 3°8.75 245.1 9.7 243 15.9
2010-04-12 12:08:01 51°22.398 3°8.518 246.1 9.8 242 15.2
2010-04-12 12:09:01 51°22.326 3°8.288 242.6 9.9 237 15.2
2010-04-12 12:10:01 51°22.254 3°8.061 245.4 9.4 244 14.8
2010-04-12 12:11:01 51°22.185 3°7.834 245.5 9.5 247 14.9
2010-04-12 12:12:01 51°22.111 3°7.6 242.4 11.2 249 14.4
2010-04-12 12:13:01 51°22.053 3°7.299 269.6 11.5 274 15.1
2010-04-12 12:14:01 51°22.005 3°7.006 257 9.9 250 14.4
2010-04-12 12:15:01 51°21.958 3°6.763 250.7 9.7 256 14.5
2010-04-12 12:16:01 51°21.897 3°6.523 249.5 10 239 14.4
2010-04-12 12:17:01 51°21.834 3°6.28 250.6 9.8 246 14.1
2010-04-12 12:18:01 51°21.774 3°6.033 250.2 9.9 251 13.6
2010-04-12 12:19:01 51°21.71 3°5.786 249.8 9.9 249 13
2010-04-12 12:20:01 51°21.646 3°5.542 247.8 10.1 253 12.9
2010-04-12 12:21:01 51°21.582 3°5.296 248 10.1 244 13.5
2010-04-12 12:22:01 51°21.509 3°5.054 247.4 9.9 247 12.8
2010-04-12 12:23:01 51°21.435 3°4.816 243.2 10.1 253 13.3
2010-04-12 12:24:01 51°21.367 3°4.573 247.3 10 249 13.2
2010-04-12 12:25:01 51°21.292 3°4.339 237.6 9.6 230 13
2010-04-12 12:26:01 51°21.178 3°4.149 233.1 10.1 237 12.7
2010-04-12 12:27:01 51°21.086 3°3.921 239 10.4 245 12.9
2010-04-12 12:28:01 51°21.008 3°3.682 247.2 10.1 240 12.2
2010-04-12 12:29:01 51°20.946 3°3.429 250 10.6 244 12.3
2010-04-12 12:30:01 51°20.887 3°3.179 239.1 10.2 240 12
2010-04-12 12:31:01 51°20.768 3°2.981 221.1 10.5 222 11.7
2010-04-12 12:32:01 51°20.664 3°2.762 241.9 10.4 249 11.3
2010-04-12 12:33:01 51°20.647 3°2.491 268.6 10.5 268 11.5
2010-04-12 12:34:01 51°20.65 3°2.209 270.1 10.7 271 12.2
2010-04-12 12:35:01 51°20.651 3°1.929 268.6 10.6 268 12.2
2010-04-12 12:36:01 51°20.648 3°1.654 268.8 10.3 271 12.3
2010-04-12 12:37:01 51°20.643 3°1.384 263.4 10.1 267 12.4
2010-04-12 12:38:01 51°20.613 3°1.121 255.5 10 258 12.1
2010-04-12 12:39:01 51°20.558 3°0.866 247.9 10.3 247 12.2
2010-04-12 12:40:01 51°20.506 3°0.61 253.6 10.1 245 12.6
2010-04-12 12:41:01 51°20.456 3°0.351 253.4 10.3 251 12.3
2010-04-12 12:42:01 51°20.4 3°0.092 248.2 10.3 243 12.3
2010-04-12 12:43:01 51°20.33 2°59.844 246 10.1 244 12.3
2010-04-12 12:44:01 51°20.26 2°59.596 245.5 10.1 247 12.4
2010-04-12 12:45:01 51°20.19 2°59.348 246.3 10.3 245 12.3
2010-04-12 12:46:01 51°20.123 2°59.096 248.5 10.3 246 12.4
2010-04-12 12:47:01 51°20.054 2°58.845 246.1 10.3 248 12.9
2010-04-12 12:48:01 51°19.989 2°58.592 251.3 10.1 246 12.5
2010-04-12 12:49:01 51°19.922 2°58.34 247.6 10.2 247 13
2010-04-12 12:50:01 51°19.854 2°58.086 247.1 10.6 243 13.2
2010-04-12 12:51:01 51°19.785 2°57.829 244.8 10.6 245 13.3
2010-04-12 12:52:01 51°19.717 2°57.575 245.1 10.4 240 12.6
2010-04-12 12:53:01 51°19.648 2°57.324 247.1 10.3 249 13.5
2010-04-12 12:54:01 51°19.579 2°57.072 246.8 10.3 247 13.3
2010-04-12 12:55:01 51°19.512 2°56.818 244.8 10.5 254 13
2010-04-12 12:56:01 51°19.445 2°56.56 247.6 10.7 249 12.7
2010-04-12 12:57:01 51°19.375 2°56.305 247.2 10.4 254 13
2010-04-12 12:58:01 51°19.307 2°56.049 249.3 10.1 249 13.5
2010-04-12 12:59:01 51°19.237 2°55.796 246.5 10.5 247 13.4
2010-04-12 13:00:01 51°19.166 2°55.537 246.9 10.8 244 13
2010-04-12 13:01:01 51°19.096 2°55.279 246.9 10.7 242 14.1
2010-04-12 13:02:01 51°19.027 2°55.019 246.6 10.7 241 13.7
2010-04-12 13:03:01 51°18.958 2°54.762 244.9 10.5 247 13.2
2010-04-12 13:04:01 51°18.886 2°54.506 246.6 10.5 242 13.6
2010-04-12 13:05:01 51°18.816 2°54.248 245.7 10.4 248 13.5
2010-04-12 13:06:01 51°18.745 2°53.991 247.7 10.5 237 13.5
2010-04-12 13:07:01 51°18.676 2°53.732 246.4 10.5 252 13
2010-04-12 13:08:01 51°18.606 2°53.474 246.2 10.8 242 14
2010-04-12 13:09:01 51°18.534 2°53.217 242.5 10.7 251 13.4
2010-04-12 13:10:01 51°18.452 2°52.969 237.9 10.7 234 13.5
2010-04-12 13:11:01 51°18.362 2°52.729 238 10.6 242 12.9
2010-04-12 13:12:01 51°18.266 2°52.496 235.2 10.4 233 13.2
2010-04-12 13:13:01 51°18.122 2°52.344 205.3 10.6 200 12.6
2010-04-12 13:15:26 51°17.705 2°52.182 195.1 10.6 195 13.2
2010-04-12 13:16:26 51°17.532 2°52.123 193.9 10.7 191 13.5
2010-04-12 13:17:26 51°17.356 2°52.113 177.4 10.4 180 13.1
2010-04-12 13:18:26 51°17.182 2°52.157 166.3 10.6 162 13.1
2010-04-12 13:19:26 51°17.019 2°52.278 154.8 10.8 160 11.6
2010-04-12 13:20:26 51°16.858 2°52.409 156.5 10.9 161 11.4
2010-04-12 13:21:26 51°16.694 2°52.535 158.3 11.1 154 12.9
2010-04-12 13:22:26 51°16.53 2°52.664 155.4 11 157 13.8
2010-04-12 13:23:26 51°16.378 2°52.826 146.1 11 146 13.9
2010-04-12 13:24:26 51°16.224 2°52.99 149.2 11 148 14.3
2010-04-12 13:25:26 51°16.075 2°53.163 141.9 11.3 138 13.8
2010-04-12 13:26:26 51°15.928 2°53.343 146.6 10.9 143 13.6
2010-04-12 13:27:26 51°15.774 2°53.504 150.1 11.4 149 13.6
2010-04-12 13:28:26 51°15.622 2°53.67 145.6 11 142 13.3
2010-04-12 13:29:26 51°15.471 2°53.839 143.7 11 138 12.4
2010-04-12 13:30:26 51°15.323 2°54.01 145.2 11.1 142 12.3
2010-04-12 13:31:26 51°15.184 2°54.194 140.5 10 141 12
2010-04-12 13:32:26 51°15.074 2°54.346 140 7.7 148 12
2010-04-12 13:33:26 51°14.973 2°54.478 152.1 9.2 148 11.5
2010-04-12 13:34:26 51°14.813 2°54.612 156.2 12.9 152 11.3
2010-04-12 13:35:26 51°14.641 2°54.829 135.8 13.2 133 13.6
2010-04-12 13:36:26 51°14.468 2°55.057 146 13.1 143 12.5
2010-04-12 13:37:26 51°14.308 2°55.232 145.6 9 142 12.2
2010-04-12 13:38:30 51°14.205 2°55.353 148.7 6.4 149 -999
2010-04-12 13:39:30 51°14.114 2°55.424 155.6 6.1 157 -999
2010-04-12 13:40:30 51°14.036 2°55.502 130.6 4.8 131 -999
2010-04-12 13:41:30 51°14.01 2°55.559 128 1 131 -999
2010-04-12 13:42:30 51°14.006 2°55.56 137.2 0.2 196 -999
2010-04-12 13:43:30 51°14 2°55.559 136.1 0.6 165 -999
2010-04-12 13:44:30 51°13.956 2°55.581 166.8 4.6 167 5.5
2010-04-12 13:45:30 51°13.86 2°55.622 161.9 6.7 162 11.7
2010-04-12 13:46:30 51°13.767 2°55.692 140.9 5.3 143 -999
2010-04-12 13:47:30 51°13.715 2°55.781 126.3 4.3 128 -999
2010-04-12 13:48:29 51°13.679 2°55.877 113.3 4 112 10.2
2010-04-12 13:49:27 51°13.665 2°55.948 110.8 1.9 116 7.8
2010-04-12 13:50:30 51°13.661 2°55.96 113 0.1 163 7.7